Nearby METAR Reports

 

KSJC - San Jose, California, USA
Distance from station: NE 14km
Updated: 02/06/2020 04:53
Mostly cloudy
Mostly cloudy
 Wind from NNW
Wind: NNW 19 km/h
Temperature: 20°C
Dew Point: 11°C
Humidity: 56%
Barometer: 1014.9 hPa
Clouds: Mostly cloudy
Visibility: 16 km
Cloud details: Few Clouds 1372 m
Partly cloudy 3048 m
Mostly cloudy 6096 m
2020/06/02 02:53 KSJC 020253Z 34010KT 10SM FEW045 SCT100 BKN200 20/11 A2997 RMK AO2 SLP147 T02000111 53003
KNUQ - Moffett Nas/Mtn, California, USA
Distance from station: N 14km
Updated: 01/06/2020 15:55
NOT Current
Clear
Clear
 Wind from calm
Wind: Calm
Temperature: 15°C
Dew Point: 12°C
Humidity: 82%
Barometer: 1015.6 hPa
Clouds: Clear
Visibility: 16 km
2020/06/01 13:55 KNUQ 011355Z AUTO 00000KT 10SM CLR 15/12 A2999 RMK AO2
 
KPAO - Palo Alto, California, USA
Distance from station: NNW 23km
Updated: 02/06/2020 00:47
NOT Current
Partly cloudy
Partly cloudy
 Wind from NNW
Wind: NNW 30 km/h
Temperature: 23°C
Dew Point: 13°C
Humidity: 53%
Barometer: 1015.2 hPa
Clouds: Partly cloudy
Visibility: 16 km
Cloud details: Few Clouds 1067 m
Partly cloudy 3658 m
2020/06/01 22:47 KPAO 012247Z 34016KT 10SM FEW035 SCT120 23/13 A2998 RMK LAST
KRHV - San Jose/Reid, California, USA
Distance from station: ENE 19km
Updated: 02/06/2020 04:50
Partly cloudy
Partly cloudy
 Wind from NW
Wind: NW 13 km/h
Temperature: 22°C
Dew Point: 11°C
Humidity: 50%
Barometer: 1015.2 hPa
Clouds: Partly cloudy
Visibility: 16 km
Cloud details: Few Clouds 1372 m
Partly cloudy 3048 m
2020/06/02 02:50 KRHV 020250Z 31007KT 10SM FEW045 SCT100 22/11 A2998
 
KOAK - Oakland, California, USA
Distance from station: NNW 50km
Updated: 02/06/2020 04:53
Partly cloudy
Partly cloudy
 Wind from WNW
Wind: WNW 17 km/h
Temperature: 19°C
Dew Point: 12°C
Humidity: 64%
Barometer: 1014.9 hPa
Clouds: Partly cloudy
Visibility: 16 km
Cloud details: Few Clouds 305 m
Few Clouds 4267 m
Partly cloudy 6096 m
Partly cloudy 7620 m
2020/06/02 02:53 KOAK 020253Z 29009KT 10SM FEW010 FEW140 SCT200 SCT250 19/12 A2997 RMK AO2 SLP149 T01890122 57006
KSQL - San Carlos Airpo, California, USA
Distance from station: NW 34km
Updated: 02/06/2020 04:58
Partly cloudy
Partly cloudy
 Wind from W
Wind: W 11 km/h
Temperature: 19°C
Dew Point: 9°C
Humidity: 52%
Barometer: 1015.2 hPa
Clouds: Partly cloudy
Visibility: 16 km
Cloud details: Few Clouds 366 m
Partly cloudy 6096 m
2020/06/02 02:58 KSQL 020258Z 28006KT 10SM FEW012 SCT200 19/09 A2998
 
KSFO - San Francisco, California, USA
Distance from station: NW 49km
Updated: 02/06/2020 04:56
Partly cloudy
Partly cloudy
 Wind from W
Wind: W 30 km/h
Temperature: 16°C
Dew Point: 9°C
Humidity: 63%
Barometer: 1014.6 hPa
Clouds: Partly cloudy
Visibility: 16 km
Cloud details: Few Clouds 305 m
Partly cloudy 6096 m
2020/06/02 02:56 KSFO 020256Z 28016KT 10SM FEW010 SCT200 16/09 A2996 RMK AO2 SLP147 T01610094 58008
KE16 - San Martin, California, USA
Distance from station: ESE 43km
Updated: 02/06/2020 05:25
Clear
Clear
 Wind from SSE
Wind: SSE 7 km/h
Temperature: 18°C
Dew Point: 12°C
Humidity: 68%
Barometer: 1015.6 hPa
Clouds: Clear
Visibility: 16 km
2020/06/02 03:25 KE16 020325Z AUTO 15004KT 10SM CLR 18/12 A2999 RMK AO2 PWINO PNO
 
KWVI - Watsonville, California, USA
Distance from station: SSE 44km
Updated: 02/06/2020 04:53
Clear
Clear
 Wind from SE
Wind: SE 9 km/h
Temperature: 15°C
Dew Point: 12°C
Humidity: 82%
Barometer: 1015.6 hPa
Clouds: Clear
Visibility: 16 km
2020/06/02 02:53 KWVI 020253Z AUTO 14005KT 10SM CLR 15/12 A2999 RMK AO2 SLP156 T01500122 56004
KHAF - Half Moon Bay, California, USA
Distance from station: WNW 50km
Updated: 02/06/2020 05:35
Mist, Overcast
Mist, Overcast
 Wind from NNW
Wind: NNW 7 km/h
Temperature: 13°C
Dew Point: 12°C
Humidity: 94%
Barometer: 1016.6 hPa
Summary: Mist
Clouds: Overcast
Visibility: 8 km
Cloud details: Overcast 244 m
2020/06/02 03:35 KHAF 020335Z AUTO 34004KT 5SM BR OVC008 13/12 A3002 RMK AO2
 
KHWD - Hayward, California, USA
Distance from station: N 44km
Updated: 02/06/2020 04:54
Clear
Clear
 Wind from WNW
Wind: WNW 13 km/h
Temperature: 19°C
Dew Point: 11°C
Humidity: 60%
Barometer: 1014.6 hPa
Clouds: Clear
Visibility: 16 km
2020/06/02 02:54 KHWD 020254Z 30007KT 10SM CLR 19/11 A2996 RMK AO2 SLP155 T01890111 56006
KLVK - Livermore, California, USA
Distance from station: NNE 51km
Updated: 02/06/2020 04:53
Clear
Clear
 Wind from W
Wind: W 15 km/h
Temperature: 22°C
Dew Point: 11°C
Humidity: 50%
Barometer: 1014.2 hPa
Clouds: Clear
Visibility: 16 km
2020/06/02 02:53 KLVK 020253Z AUTO 26008KT 10SM CLR 22/11 A2995 RMK AO2 SLP138 T02220106 55000